createdAt,value
2023-05-07T00:00:40.025Z,11.59
2023-05-07T00:02:13.179Z,11.59
2023-05-07T00:03:46.398Z,11.53
2023-05-07T00:05:20.335Z,11.48
2023-05-07T00:06:52.802Z,11.47
2023-05-07T00:08:25.923Z,11.49
2023-05-07T00:09:58.221Z,11.51
2023-05-07T00:11:33.328Z,11.53
2023-05-07T00:13:07.474Z,11.57
2023-05-07T00:14:39.609Z,11.58
2023-05-07T00:16:12.725Z,11.60
2023-05-07T00:17:45.018Z,11.62
2023-05-07T00:19:18.233Z,11.64
2023-05-07T00:20:51.423Z,11.66
2023-05-07T00:22:24.657Z,11.68
2023-05-07T00:23:57.906Z,11.68
2023-05-07T00:25:30.132Z,11.60
2023-05-07T00:27:04.848Z,11.57
2023-05-07T00:28:37.963Z,11.55
2023-05-07T00:30:12.267Z,11.57
2023-05-07T00:31:45.893Z,11.54
2023-05-07T00:33:19.085Z,11.52
2023-05-07T00:34:52.175Z,11.50
2023-05-07T00:36:25.476Z,11.49
2023-05-07T00:37:58.773Z,11.47
2023-05-07T00:39:31.878Z,11.44
2023-05-07T00:41:05.094Z,11.46
2023-05-07T00:42:40.082Z,11.43
2023-05-07T00:44:13.374Z,11.31
2023-05-07T00:45:45.731Z,11.36
2023-05-07T00:47:19.401Z,11.37
2023-05-07T00:48:52.182Z,11.35
2023-05-07T00:50:25.810Z,11.36
2023-05-07T00:51:58.907Z,11.30
2023-05-07T00:53:32.687Z,11.25
2023-05-07T00:55:08.731Z,11.20
2023-05-07T00:56:42.388Z,11.13
2023-05-07T00:58:16.998Z,11.03
2023-05-07T00:59:49.670Z,11.00
2023-05-07T01:01:23.156Z,10.97
2023-05-07T01:02:55.490Z,10.94
2023-05-07T01:04:29.489Z,10.93
2023-05-07T01:06:04.296Z,10.88
2023-05-07T01:07:39.018Z,10.92
2023-05-07T01:09:12.453Z,10.97
2023-05-07T01:10:45.274Z,10.99
2023-05-07T01:12:18.682Z,10.95
2023-05-07T01:13:53.795Z,10.93
2023-05-07T01:15:27.528Z,10.91
2023-05-07T01:17:01.154Z,10.87
2023-05-07T01:18:33.862Z,10.86
2023-05-07T01:20:09.433Z,10.85
2023-05-07T01:21:46.252Z,10.81
2023-05-07T01:23:21.509Z,10.77
2023-05-07T01:24:55.160Z,10.71
2023-05-07T01:26:27.608Z,10.65
2023-05-07T01:28:02.523Z,10.60
2023-05-07T01:29:39.455Z,10.58
2023-05-07T01:31:14.622Z,10.53
2023-05-07T01:32:53.335Z,10.44
2023-05-07T01:34:28.140Z,10.44
2023-05-07T01:36:04.680Z,10.41
2023-05-07T01:37:38.319Z,10.40
2023-05-07T01:39:12.710Z,10.41
2023-05-07T01:40:46.353Z,10.43
2023-05-07T01:42:18.646Z,10.44
2023-05-07T01:43:53.353Z,10.43
2023-05-07T01:45:26.869Z,10.50
2023-05-07T01:47:00.781Z,10.49
2023-05-07T01:48:34.941Z,10.52
2023-05-07T01:50:11.259Z,10.51
2023-05-07T01:51:45.791Z,10.51
2023-05-07T01:53:18.272Z,10.50
2023-05-07T01:54:53.018Z,10.49
2023-05-07T01:56:27.350Z,10.44
2023-05-07T01:58:01.348Z,10.38
2023-05-07T01:59:34.830Z,10.38
2023-05-07T02:01:07.018Z,10.37
2023-05-07T02:02:40.693Z,10.43
2023-05-07T02:04:17.164Z,10.48
2023-05-07T02:05:51.353Z,10.56
2023-05-07T02:07:40.464Z,10.63
2023-05-07T02:09:13.884Z,10.68
2023-05-07T02:10:50.977Z,10.71
2023-05-07T02:12:24.422Z,10.81
2023-05-07T02:13:57.700Z,10.88
2023-05-07T02:15:30.046Z,10.93
2023-05-07T02:17:04.902Z,10.99
2023-05-07T02:18:38.964Z,11.01
2023-05-07T02:20:14.511Z,11.02
2023-05-07T02:21:49.078Z,11.01
2023-05-07T02:23:22.359Z,11.03
2023-05-07T02:24:56.151Z,10.99
2023-05-07T02:26:30.703Z,11.02
2023-05-07T02:28:04.050Z,11.00
2023-05-07T02:29:52.382Z,10.97
2023-05-07T02:31:24.766Z,10.94
2023-05-07T02:32:57.942Z,10.94
2023-05-07T02:34:31.236Z,10.94
2023-05-07T02:36:11.231Z,10.96
2023-05-07T02:38:01.876Z,10.88
2023-05-07T02:39:35.525Z,10.86
2023-05-07T02:41:07.760Z,10.84
2023-05-07T02:42:42.511Z,10.85
2023-05-07T02:44:15.829Z,10.85
2023-05-07T02:45:50.096Z,10.84
2023-05-07T02:47:23.614Z,10.87
2023-05-07T02:48:57.124Z,10.83
2023-05-07T02:50:29.362Z,10.86
2023-05-07T02:52:02.940Z,10.86
2023-05-07T02:53:36.116Z,10.81
2023-05-07T02:55:09.378Z,10.82
2023-05-07T02:56:42.653Z,10.76
2023-05-07T02:58:17.259Z,10.79
2023-05-07T02:59:50.389Z,10.72
2023-05-07T03:01:24.652Z,10.70
2023-05-07T03:03:10.696Z,10.68
2023-05-07T03:04:44.328Z,10.68
2023-05-07T03:06:17.644Z,10.72
2023-05-07T03:07:50.983Z,10.71
2023-05-07T03:09:23.327Z,10.72
2023-05-07T03:10:56.643Z,10.72
2023-05-07T03:12:28.883Z,10.69
2023-05-07T03:14:03.731Z,10.71
2023-05-07T03:15:36.941Z,10.69
2023-05-07T03:17:10.178Z,10.74
2023-05-07T03:18:43.408Z,10.65
2023-05-07T03:20:16.197Z,10.54
2023-05-07T03:21:49.876Z,10.38
2023-05-07T03:23:24.789Z,10.37
2023-05-07T03:24:58.412Z,10.26
2023-05-07T03:26:30.829Z,10.26
2023-05-07T03:28:04.073Z,10.28
2023-05-07T03:29:45.914Z,10.32
2023-05-07T03:31:19.090Z,10.34
2023-05-07T03:32:52.610Z,10.37
2023-05-07T03:34:26.128Z,10.40
2023-05-07T03:35:59.246Z,10.40
2023-05-07T03:37:33.224Z,10.43
2023-05-07T03:39:06.504Z,10.49
2023-05-07T03:40:45.100Z,10.51
2023-05-07T03:42:17.587Z,10.54
2023-05-07T03:43:51.548Z,10.58
2023-05-07T03:45:26.265Z,10.61
2023-05-07T03:47:09.203Z,10.65
2023-05-07T03:48:42.364Z,10.65
2023-05-07T03:50:16.369Z,10.69
2023-05-07T03:51:49.667Z,10.70
2023-05-07T03:53:23.202Z,10.76
2023-05-07T03:54:56.482Z,10.75
2023-05-07T03:56:29.716Z,10.79
2023-05-07T03:58:03.725Z,10.82
2023-05-07T03:59:37.160Z,10.87
2023-05-07T04:01:11.714Z,10.85
2023-05-07T04:02:45.061Z,10.88
2023-05-07T04:04:18.863Z,10.96
2023-05-07T04:05:52.344Z,11.01
2023-05-07T04:07:26.080Z,11.09
2023-05-07T04:08:59.239Z,11.16
2023-05-07T04:10:32.572Z,11.11
2023-05-07T04:12:10.122Z,11.11
2023-05-07T04:13:43.347Z,11.12
2023-05-07T04:15:16.825Z,11.15
2023-05-07T04:16:50.577Z,11.19
2023-05-07T04:18:24.120Z,11.20
2023-05-07T04:19:58.023Z,11.25
2023-05-07T04:21:32.234Z,11.31
2023-05-07T04:23:05.924Z,11.36
2023-05-07T04:24:38.810Z,11.28
2023-05-07T04:26:12.436Z,11.19
2023-05-07T04:27:49.991Z,11.11
2023-05-07T04:29:24.781Z,11.08
2023-05-07T04:30:57.044Z,11.07
2023-05-07T04:32:32.860Z,11.07
2023-05-07T04:34:06.577Z,11.14
2023-05-07T04:35:39.024Z,11.17
2023-05-07T04:37:13.119Z,11.24
2023-05-07T04:38:45.678Z,11.27
2023-05-07T04:40:19.537Z,11.29
2023-05-07T04:41:53.035Z,11.32
2023-05-07T04:43:26.175Z,11.36
2023-05-07T04:44:59.367Z,11.39
2023-05-07T04:46:32.824Z,11.35
2023-05-07T04:48:07.918Z,11.43
2023-05-07T04:49:41.584Z,11.43
2023-05-07T04:51:15.000Z,11.53
2023-05-07T04:52:48.278Z,11.63
2023-05-07T04:54:20.816Z,11.72
2023-05-07T04:55:58.195Z,11.76
2023-05-07T04:57:35.472Z,11.87
2023-05-07T04:59:08.792Z,11.98
2023-05-07T05:00:43.527Z,12.00
2023-05-07T05:02:20.076Z,12.09
2023-05-07T05:03:55.677Z,12.13
2023-05-07T05:05:28.981Z,12.21
2023-05-07T05:07:01.546Z,12.22
2023-05-07T05:08:35.432Z,12.25
2023-05-07T05:10:10.691Z,12.31
2023-05-07T05:11:46.956Z,12.38
2023-05-07T05:13:19.348Z,12.45
2023-05-07T05:14:53.620Z,12.51
2023-05-07T05:16:26.877Z,12.65
2023-05-07T05:17:59.061Z,12.72
2023-05-07T05:19:34.269Z,12.79
2023-05-07T05:21:07.673Z,12.77
2023-05-07T05:22:40.937Z,12.77
2023-05-07T05:24:14.670Z,12.74
2023-05-07T05:25:47.965Z,12.73
2023-05-07T05:27:21.762Z,12.74
2023-05-07T05:28:54.920Z,12.73
2023-05-07T05:30:30.410Z,12.80
2023-05-07T05:32:03.117Z,12.89
2023-05-07T05:33:38.030Z,12.99
2023-05-07T05:35:13.604Z,12.92
2023-05-07T05:36:48.387Z,12.97
2023-05-07T05:38:22.989Z,12.92
2023-05-07T05:39:57.428Z,12.94
2023-05-07T05:41:33.132Z,12.87
2023-05-07T05:43:06.335Z,12.89
2023-05-07T05:44:39.976Z,12.98
2023-05-07T05:46:13.448Z,13.12
2023-05-07T05:47:46.725Z,13.26
2023-05-07T05:49:20.305Z,13.36
2023-05-07T05:50:54.939Z,13.39
2023-05-07T05:52:28.426Z,13.39
2023-05-07T05:54:02.734Z,13.52
2023-05-07T05:55:36.341Z,13.73
2023-05-07T05:57:09.746Z,13.93
2023-05-07T05:58:43.384Z,14.07
2023-05-07T06:00:17.186Z,14.28
2023-05-07T06:01:53.305Z,14.59
2023-05-07T06:03:25.871Z,14.93
2023-05-07T06:04:59.667Z,15.21
2023-05-07T06:06:34.590Z,15.39
2023-05-07T06:08:09.038Z,15.41
2023-05-07T06:09:42.564Z,15.44
2023-05-07T06:11:15.946Z,15.66
2023-05-07T06:12:52.092Z,15.80
2023-05-07T06:14:24.312Z,15.97
2023-05-07T06:15:57.697Z,16.58
2023-05-07T06:17:31.686Z,17.17
2023-05-07T06:19:05.073Z,17.58
2023-05-07T06:20:38.316Z,17.69
2023-05-07T06:22:17.444Z,18.02
2023-05-07T06:23:52.321Z,18.39
2023-05-07T06:25:26.125Z,18.35
2023-05-07T06:26:59.828Z,18.57
2023-05-07T06:28:36.885Z,18.89
2023-05-07T06:30:13.700Z,19.45
2023-05-07T06:31:47.106Z,19.85
2023-05-07T06:33:21.832Z,20.14
2023-05-07T06:34:55.350Z,20.40
2023-05-07T06:36:28.662Z,20.90
2023-05-07T06:38:06.185Z,21.14
2023-05-07T06:39:39.789Z,21.32
2023-05-07T06:41:13.157Z,21.52
2023-05-07T06:42:46.696Z,21.36
2023-05-07T06:44:29.877Z,21.21
2023-05-07T06:46:23.547Z,21.53
2023-05-07T06:47:57.107Z,21.76
2023-05-07T06:49:31.326Z,21.67
2023-05-07T06:51:04.990Z,21.68
2023-05-07T06:52:38.628Z,21.69
2023-05-07T06:54:14.606Z,21.76
2023-05-07T06:55:50.001Z,22.06
2023-05-07T06:57:26.708Z,22.38
2023-05-07T06:58:59.902Z,22.67
2023-05-07T07:00:33.448Z,23.07
2023-05-07T07:02:06.921Z,23.39
2023-05-07T07:03:40.369Z,23.71
2023-05-07T07:05:13.557Z,23.95
2023-05-07T07:06:48.066Z,23.95
2023-05-07T07:08:22.236Z,24.05
2023-05-07T07:09:57.396Z,24.12
2023-05-07T07:11:31.493Z,24.17
2023-05-07T07:13:05.755Z,24.29
2023-05-07T07:14:38.946Z,24.38
2023-05-07T07:16:12.363Z,24.56
2023-05-07T07:17:46.081Z,24.74
2023-05-07T07:19:19.585Z,24.87
2023-05-07T07:20:53.380Z,24.97
2023-05-07T07:22:26.994Z,25.07
2023-05-07T07:23:59.603Z,25.16
2023-05-07T07:25:34.780Z,25.28
2023-05-07T07:27:07.956Z,25.26
2023-05-07T07:28:45.918Z,25.18
2023-05-07T07:30:22.077Z,24.90
2023-05-07T07:31:56.370Z,24.94
2023-05-07T07:33:30.144Z,24.87
2023-05-07T07:35:03.874Z,24.66
2023-05-07T07:36:45.457Z,24.59
2023-05-07T07:38:22.347Z,24.71
2023-05-07T07:39:55.557Z,24.76
2023-05-07T07:41:30.443Z,24.92
2023-05-07T07:43:03.738Z,25.16
2023-05-07T07:44:38.123Z,25.28
2023-05-07T07:46:15.076Z,25.06
2023-05-07T07:47:49.680Z,25.08
2023-05-07T07:49:23.083Z,24.90
2023-05-07T07:50:56.674Z,25.22
2023-05-07T07:52:29.828Z,25.15
2023-05-07T07:54:03.936Z,25.61
2023-05-07T07:55:40.667Z,26.08
2023-05-07T07:57:15.882Z,26.50
2023-05-07T07:58:48.984Z,26.89
2023-05-07T08:00:22.920Z,27.22
2023-05-07T08:01:59.916Z,27.42
2023-05-07T08:03:36.957Z,27.47
2023-05-07T08:05:10.698Z,27.12
2023-05-07T08:06:44.285Z,26.86
2023-05-07T08:08:18.098Z,27.14
2023-05-07T08:09:51.526Z,27.40
2023-05-07T08:11:28.828Z,27.61
2023-05-07T08:13:05.135Z,27.46
2023-05-07T08:14:39.341Z,27.78
2023-05-07T08:16:14.615Z,27.90
2023-05-07T08:17:47.930Z,28.00
2023-05-07T08:19:21.255Z,27.93
2023-05-07T08:20:55.128Z,27.91
2023-05-07T08:22:30.920Z,27.42
2023-05-07T08:24:04.379Z,27.09
2023-05-07T08:25:38.549Z,27.25
2023-05-07T08:27:12.475Z,27.34
2023-05-07T08:28:49.609Z,27.49
2023-05-07T08:30:22.905Z,27.55
2023-05-07T08:31:56.177Z,27.46
2023-05-07T08:33:29.865Z,27.48
2023-05-07T08:35:03.798Z,27.51
2023-05-07T08:36:37.033Z,27.39
2023-05-07T08:38:10.539Z,27.42
2023-05-07T08:39:44.364Z,27.49
2023-05-07T08:41:24.054Z,27.62
2023-05-07T08:42:59.253Z,27.65
2023-05-07T08:44:36.358Z,27.27
2023-05-07T08:46:11.668Z,26.77
2023-05-07T08:47:53.002Z,26.28
2023-05-07T08:49:29.990Z,25.98
2023-05-07T08:51:04.068Z,26.19
2023-05-07T08:52:39.285Z,26.74
2023-05-07T08:54:14.227Z,27.26
2023-05-07T08:55:48.261Z,27.59
2023-05-07T08:57:22.796Z,27.69
2023-05-07T08:58:59.893Z,27.60
2023-05-07T09:00:38.644Z,27.70
2023-05-07T09:02:13.425Z,27.66
2023-05-07T09:03:48.505Z,27.73
2023-05-07T09:05:23.042Z,27.85
2023-05-07T09:06:57.359Z,28.03
2023-05-07T09:08:30.627Z,27.93
2023-05-07T09:10:08.603Z,28.03
2023-05-07T09:11:44.225Z,28.11
2023-05-07T09:13:19.462Z,28.18
2023-05-07T09:14:53.167Z,28.32
2023-05-07T09:16:28.292Z,28.23
2023-05-07T09:18:03.466Z,27.85
2023-05-07T09:19:39.697Z,27.67
2023-05-07T09:21:17.925Z,27.52
2023-05-07T09:22:53.027Z,27.46
2023-05-07T09:24:26.443Z,27.31
2023-05-07T09:26:03.170Z,27.20
2023-05-07T09:27:40.100Z,26.92
2023-05-07T09:29:13.285Z,26.96
2023-05-07T09:30:47.320Z,27.17
2023-05-07T09:32:23.458Z,27.43
2023-05-07T09:33:57.297Z,27.45
2023-05-07T09:35:33.298Z,27.33
2023-05-07T09:37:15.190Z,27.15
2023-05-07T09:38:52.220Z,27.37
2023-05-07T09:40:27.450Z,27.44
2023-05-07T09:42:03.558Z,27.16
2023-05-07T09:43:42.563Z,27.05
2023-05-07T09:45:18.120Z,27.12
2023-05-07T09:46:56.607Z,27.27
2023-05-07T09:48:41.927Z,27.44
2023-05-07T09:50:18.682Z,27.51
2023-05-07T09:51:54.100Z,27.34
2023-05-07T09:53:32.291Z,26.92
2023-05-07T09:55:09.751Z,26.75
2023-05-07T09:56:45.710Z,26.68
2023-05-07T09:58:20.917Z,26.54
2023-05-07T09:59:55.866Z,26.29
2023-05-07T10:01:33.002Z,26.07
2023-05-07T10:03:08.156Z,25.96
2023-05-07T10:04:51.339Z,25.75
2023-05-07T10:06:29.618Z,25.69
2023-05-07T10:08:05.022Z,25.62
2023-05-07T10:09:43.949Z,25.72
2023-05-07T10:11:25.275Z,25.81
2023-05-07T10:12:59.321Z,25.74
2023-05-07T10:14:39.775Z,25.68
2023-05-07T10:16:13.371Z,25.42
2023-05-07T10:17:51.805Z,25.21
2023-05-07T10:19:26.156Z,25.16
2023-05-07T10:21:09.108Z,25.11
2023-05-07T10:22:45.983Z,24.93
2023-05-07T10:24:24.146Z,24.87
2023-05-07T10:26:01.108Z,24.80
2023-05-07T10:27:37.563Z,24.65
2023-05-07T10:29:27.530Z,24.68
2023-05-07T10:31:12.589Z,24.79
2023-05-07T10:32:52.960Z,24.86
2023-05-07T10:34:44.342Z,24.90
2023-05-07T10:36:21.057Z,24.90
2023-05-07T10:37:54.986Z,25.03
2023-05-07T10:39:29.863Z,25.03
2023-05-07T10:41:07.035Z,25.04
2023-05-07T10:42:56.931Z,25.02
2023-05-07T10:44:31.693Z,24.90
2023-05-07T10:46:12.606Z,24.77
2023-05-07T10:48:28.697Z,24.81
2023-05-07T10:50:26.092Z,24.71
2023-05-07T10:52:17.170Z,24.61
2023-05-07T10:54:24.818Z,24.41
2023-05-07T10:56:29.969Z,24.55
2023-05-07T10:58:32.077Z,24.76
2023-05-07T11:00:45.809Z,24.51
2023-05-07T11:02:59.658Z,24.61
2023-05-07T11:04:36.382Z,24.83
2023-05-07T11:06:20.292Z,25.05
2023-05-07T11:08:03.782Z,25.13
2023-05-07T11:10:05.962Z,25.17
2023-05-07T11:11:59.483Z,25.10
2023-05-07T11:13:47.034Z,24.93
2023-05-07T11:15:47.621Z,24.99
2023-05-07T11:17:35.747Z,25.06
2023-05-07T11:19:13.240Z,25.13
2023-05-07T11:20:53.037Z,25.05
2023-05-07T11:22:40.984Z,25.03
2023-05-07T11:24:41.858Z,25.03
2023-05-07T11:26:14.910Z,25.04
2023-05-07T11:27:48.825Z,24.97
2023-05-07T11:29:24.085Z,25.04
2023-05-07T11:31:05.323Z,24.96
2023-05-07T11:32:39.358Z,24.98
2023-05-07T11:34:13.488Z,25.02
2023-05-07T11:35:47.616Z,24.92
2023-05-07T11:37:24.155Z,24.93
2023-05-07T11:39:04.871Z,25.07
2023-05-07T11:40:51.233Z,25.14
2023-05-07T11:42:28.179Z,25.11
2023-05-07T11:44:02.217Z,24.91
2023-05-07T11:45:36.381Z,24.77
2023-05-07T11:47:09.777Z,24.75
2023-05-07T11:48:43.102Z,24.85
2023-05-07T11:50:16.231Z,24.97
2023-05-07T11:51:49.603Z,24.99
2023-05-07T11:53:26.850Z,24.89
2023-05-07T11:55:01.547Z,25.00
2023-05-07T11:56:36.816Z,25.08
2023-05-07T11:58:12.050Z,25.10
2023-05-07T11:59:46.304Z,25.14
2023-05-07T12:01:19.511Z,25.22
2023-05-07T12:02:52.883Z,25.24
2023-05-07T12:04:26.739Z,25.23
2023-05-07T12:06:01.925Z,25.15
2023-05-07T12:07:35.977Z,25.14
2023-05-07T12:09:12.570Z,25.13
2023-05-07T12:10:46.741Z,25.06
2023-05-07T12:12:21.542Z,25.13
2023-05-07T12:13:59.769Z,25.15
2023-05-07T12:15:33.302Z,25.12
2023-05-07T12:17:08.468Z,25.11
2023-05-07T12:18:42.417Z,25.04
2023-05-07T12:20:15.732Z,25.07
2023-05-07T12:21:49.152Z,24.98
2023-05-07T12:23:23.210Z,25.03
2023-05-07T12:25:00.460Z,25.13
2023-05-07T12:26:33.755Z,25.07
2023-05-07T12:28:09.815Z,25.15
2023-05-07T12:29:47.605Z,25.17
2023-05-07T12:31:21.154Z,25.04
2023-05-07T12:32:54.324Z,24.93
2023-05-07T12:34:27.486Z,24.95
2023-05-07T12:36:00.859Z,25.08
2023-05-07T12:37:34.119Z,25.21
2023-05-07T12:39:07.518Z,25.25
2023-05-07T12:40:42.619Z,25.29
2023-05-07T12:42:18.534Z,25.27
2023-05-07T12:43:58.891Z,25.29
2023-05-07T12:45:31.196Z,25.26
2023-05-07T12:47:04.913Z,25.18
2023-05-07T12:48:40.087Z,25.13
2023-05-07T12:50:12.648Z,25.13
2023-05-07T12:51:46.090Z,25.11
2023-05-07T12:53:21.853Z,25.09
2023-05-07T14:49:23.995Z,25.47
2023-05-07T14:50:57.429Z,25.40
2023-05-07T14:52:30.577Z,25.32
2023-05-07T14:54:04.431Z,25.32
2023-05-07T14:55:37.842Z,25.28
2023-05-07T14:57:14.432Z,25.24
2023-05-07T14:58:49.497Z,25.23
2023-05-07T15:00:22.895Z,25.28
2023-05-07T15:01:57.120Z,25.26
2023-05-07T15:03:30.788Z,25.15
2023-05-07T15:05:06.013Z,25.09
2023-05-07T15:06:39.663Z,25.03
2023-05-07T15:08:13.105Z,25.04
2023-05-07T15:09:46.997Z,25.06
2023-05-07T15:11:20.137Z,25.15
2023-05-07T15:12:53.290Z,25.13
2023-05-07T15:14:26.767Z,25.13
2023-05-07T15:15:59.955Z,25.11
2023-05-07T15:17:33.185Z,25.14
2023-05-07T15:19:06.319Z,25.12
2023-05-07T15:20:41.139Z,25.09
2023-05-07T15:22:14.502Z,25.05
2023-05-07T15:23:47.862Z,24.98
2023-05-07T15:25:21.760Z,24.98
2023-05-07T15:26:55.103Z,24.89
2023-05-07T15:28:29.089Z,24.79
2023-05-07T15:30:04.922Z,24.76
2023-05-07T15:31:40.014Z,24.75
2023-05-07T15:33:13.680Z,24.68
2023-05-07T15:34:46.835Z,24.68
2023-05-07T15:36:22.121Z,24.72
2023-05-07T15:37:55.531Z,24.64
2023-05-07T15:39:29.236Z,24.68
2023-05-07T15:41:02.463Z,24.69
2023-05-07T15:42:35.881Z,24.66
2023-05-07T15:44:09.675Z,24.72
2023-05-07T15:45:44.745Z,24.74
2023-05-07T15:47:17.957Z,24.72
2023-05-07T15:48:51.192Z,24.68
2023-05-07T15:50:24.428Z,24.62
2023-05-07T15:51:59.271Z,24.53
2023-05-07T15:53:32.499Z,24.48
2023-05-07T15:55:06.657Z,24.51
2023-05-07T15:56:39.970Z,24.48
2023-05-07T15:58:13.260Z,24.46
2023-05-07T15:59:46.399Z,24.41
2023-05-07T16:01:19.732Z,24.35
2023-05-07T16:02:53.248Z,24.31
2023-05-07T16:04:28.182Z,24.29
2023-05-07T16:06:01.975Z,24.23
2023-05-07T16:07:36.458Z,24.18
2023-05-07T16:09:10.474Z,24.08
2023-05-07T16:10:43.800Z,24.01
2023-05-07T16:12:18.258Z,23.94
2023-05-07T16:13:51.375Z,23.88
2023-05-07T16:15:25.050Z,23.86
2023-05-07T16:16:58.603Z,23.85
2023-05-07T16:18:31.897Z,23.78
2023-05-07T16:20:06.565Z,23.73
2023-05-07T16:21:39.799Z,23.69
2023-05-07T16:23:14.369Z,23.64
2023-05-07T16:24:47.584Z,23.62
2023-05-07T16:26:20.691Z,23.60
2023-05-07T16:27:54.861Z,23.59
2023-05-07T16:29:28.290Z,23.54
2023-05-07T16:31:01.451Z,23.50
2023-05-07T16:32:34.882Z,23.48
2023-05-07T16:34:08.195Z,23.46
2023-05-07T16:35:41.601Z,23.42
2023-05-07T16:37:14.808Z,23.44
2023-05-07T16:38:49.407Z,23.44
2023-05-07T16:40:22.646Z,23.42
2023-05-07T16:41:56.104Z,23.40
2023-05-07T16:43:29.390Z,23.37
2023-05-07T16:45:04.786Z,23.32
2023-05-07T16:46:38.155Z,23.28
2023-05-07T16:48:11.286Z,23.22
2023-05-07T16:49:44.420Z,23.21
2023-05-07T16:51:17.644Z,23.15
2023-05-07T16:52:50.979Z,23.10
2023-05-07T16:54:25.520Z,23.04
2023-05-07T16:55:58.718Z,22.99
2023-05-07T16:57:32.665Z,22.95
2023-05-07T16:59:07.502Z,22.88
2023-05-07T17:02:17.171Z,22.80
2023-05-07T17:03:50.796Z,22.76
2023-05-07T17:05:24.593Z,22.72
2023-05-07T17:06:57.959Z,22.66
2023-05-07T17:08:31.126Z,22.58
2023-05-07T17:10:06.594Z,22.50
2023-05-07T17:11:39.893Z,22.46
2023-05-07T17:13:14.165Z,22.36
2023-05-07T17:14:47.368Z,22.33
2023-05-07T17:16:20.724Z,22.24
2023-05-07T17:17:53.949Z,22.17
2023-05-07T17:19:27.239Z,22.12
2023-05-07T17:21:01.002Z,22.09
2023-05-07T17:22:34.353Z,22.01
2023-05-07T17:24:08.416Z,21.91
2023-05-07T17:25:45.566Z,21.87
2023-05-07T17:27:18.772Z,21.78
2023-05-07T17:28:51.853Z,21.71
2023-05-07T17:30:25.129Z,21.61
2023-05-07T17:31:58.342Z,21.52
2023-05-07T17:33:31.554Z,21.42
2023-05-07T17:35:05.076Z,21.35
2023-05-07T17:36:38.257Z,21.29
2023-05-07T17:38:11.394Z,21.24
2023-05-07T17:39:44.464Z,21.22
2023-05-07T17:41:18.996Z,21.13
2023-05-07T17:42:54.346Z,21.05
2023-05-07T17:44:28.564Z,20.97
2023-05-07T17:46:01.884Z,20.98
2023-05-07T17:47:35.771Z,20.91
2023-05-07T17:49:08.937Z,20.85
2023-05-07T17:50:42.656Z,20.80
2023-05-07T17:52:15.852Z,20.74
2023-05-07T17:53:50.262Z,20.73
2023-05-07T17:55:23.582Z,20.73
2023-05-07T17:56:58.185Z,20.68
2023-05-07T17:58:31.689Z,20.66
2023-05-07T18:00:07.745Z,20.61
2023-05-07T18:01:42.390Z,20.58
2023-05-07T18:03:15.833Z,20.55
2023-05-07T18:04:49.743Z,20.54
2023-05-07T18:06:23.328Z,20.46
2023-05-07T18:07:57.029Z,20.38
2023-05-07T18:09:30.463Z,20.33
2023-05-07T18:11:05.876Z,20.31
2023-05-07T18:12:41.467Z,20.29
2023-05-07T18:14:14.893Z,20.23
2023-05-07T18:15:48.635Z,20.21
2023-05-07T18:17:24.250Z,20.15
2023-05-07T18:18:57.689Z,20.03
2023-05-07T18:20:31.091Z,20.06
2023-05-07T18:22:04.312Z,20.02
2023-05-07T18:23:37.978Z,20.00
2023-05-07T18:25:11.658Z,19.94
2023-05-07T18:26:45.379Z,19.88
2023-05-07T18:28:19.972Z,19.85
2023-05-07T18:29:52.178Z,19.77
2023-05-07T18:31:25.386Z,19.74
2023-05-07T18:32:59.101Z,19.69
2023-05-07T18:34:32.414Z,19.68
2023-05-07T18:36:06.059Z,19.59
2023-05-07T18:37:39.145Z,19.47
2023-05-07T18:39:16.693Z,19.44
2023-05-07T18:40:49.958Z,19.39
2023-05-07T18:42:23.158Z,19.37
2023-05-07T18:43:57.647Z,19.36
2023-05-07T18:45:30.862Z,19.33
2023-05-07T18:47:04.212Z,19.27
2023-05-07T18:48:37.429Z,19.25
2023-05-07T18:50:11.647Z,19.19
2023-05-07T18:51:45.886Z,19.17
2023-05-07T18:53:24.161Z,19.17
2023-05-07T18:54:57.537Z,19.17
2023-05-07T18:56:30.711Z,19.16
2023-05-07T18:58:04.120Z,19.18
2023-05-07T18:59:38.711Z,19.16
2023-05-07T19:01:12.017Z,19.18
2023-05-07T19:02:45.413Z,19.20
2023-05-07T19:04:19.114Z,19.22
2023-05-07T19:05:52.267Z,19.24
2023-05-07T19:07:26.350Z,19.20
2023-05-07T19:08:59.512Z,19.15
2023-05-07T19:10:32.825Z,19.02
2023-05-07T19:12:06.783Z,18.91
2023-05-07T19:13:40.114Z,18.78
2023-05-07T19:15:14.825Z,18.68
2023-05-07T19:16:47.961Z,18.62
2023-05-07T19:18:21.112Z,18.56
2023-05-07T19:19:54.249Z,18.56
2023-05-07T19:21:28.767Z,18.56
2023-05-07T19:23:02.225Z,18.62
2023-05-07T19:24:37.185Z,18.62
2023-05-07T19:26:11.922Z,18.62
2023-05-07T19:27:45.198Z,18.65
2023-05-07T19:29:18.744Z,18.66
2023-05-07T19:30:53.294Z,18.71
2023-05-07T19:32:27.383Z,18.76
2023-05-07T19:34:00.960Z,18.83
2023-05-07T19:35:35.533Z,18.80
2023-05-07T19:37:08.717Z,18.86
2023-05-07T19:38:42.219Z,18.84
2023-05-07T19:40:15.568Z,18.86
2023-05-07T19:41:48.989Z,18.81
2023-05-07T19:43:22.752Z,18.73
2023-05-07T19:44:56.065Z,18.60
2023-05-07T19:46:31.073Z,18.51
2023-05-07T19:48:04.431Z,18.43
2023-05-07T19:49:37.729Z,18.32
2023-05-07T19:51:11.456Z,18.29
2023-05-07T19:52:44.672Z,18.28
2023-05-07T19:54:18.016Z,18.27
2023-05-07T19:55:51.208Z,18.28
2023-05-07T19:57:24.670Z,18.31
2023-05-07T19:58:57.933Z,18.34
2023-05-07T20:00:32.903Z,18.36
2023-05-07T20:02:08.061Z,18.32
2023-05-07T20:03:41.723Z,18.24
2023-05-07T20:05:16.046Z,18.21
2023-05-07T20:06:49.431Z,18.20
2023-05-07T20:08:22.636Z,18.16
2023-05-07T20:09:55.980Z,18.10
2023-05-07T20:11:29.278Z,18.13
2023-05-07T20:13:02.854Z,18.11
2023-05-07T20:14:36.270Z,18.06
2023-05-07T20:16:09.628Z,18.02
2023-05-07T20:17:44.466Z,18.00
2023-05-07T20:19:19.219Z,17.97
2023-05-07T20:20:52.437Z,17.87
2023-05-07T20:22:25.859Z,17.86
2023-05-07T20:23:59.117Z,17.79
2023-05-07T20:25:32.347Z,17.79
2023-05-07T20:27:06.304Z,17.63
2023-05-07T20:28:39.591Z,17.46
2023-05-07T20:30:14.549Z,17.37
2023-05-07T20:31:48.078Z,17.37
2023-05-07T20:33:22.606Z,17.27
2023-05-07T20:34:56.158Z,17.21
2023-05-07T20:36:29.406Z,17.21
2023-05-07T20:38:02.565Z,17.20
2023-05-07T20:39:35.800Z,17.14
2023-05-07T20:41:09.915Z,17.02
2023-05-07T20:42:44.054Z,17.02
2023-05-07T20:44:19.174Z,16.96
2023-05-07T20:46:01.538Z,16.98
2023-05-07T20:47:35.125Z,16.86
2023-05-07T20:49:09.687Z,16.80
2023-05-07T20:50:43.043Z,16.80
2023-05-07T20:52:16.159Z,16.82
2023-05-07T20:53:49.410Z,16.83
2023-05-07T20:55:22.611Z,16.87
2023-05-07T20:56:55.856Z,16.85
2023-05-07T20:58:29.661Z,16.83
2023-05-07T21:00:03.820Z,16.71
2023-05-07T21:01:37.207Z,16.71
2023-05-07T21:03:11.253Z,16.68
2023-05-07T21:04:45.984Z,16.64
2023-05-07T21:06:18.289Z,16.61
2023-05-07T21:07:51.457Z,16.58
2023-05-07T21:09:24.620Z,16.54
2023-05-07T21:10:57.865Z,16.47
2023-05-07T21:12:31.126Z,16.46
2023-05-07T21:14:04.498Z,16.48
2023-05-07T21:15:37.670Z,16.48
2023-05-07T21:17:10.824Z,16.49
2023-05-07T21:18:44.488Z,16.51
2023-05-07T21:20:19.329Z,16.51
2023-05-07T21:21:53.983Z,16.46
2023-05-07T21:23:27.122Z,16.47
2023-05-07T21:25:00.026Z,16.47
2023-05-07T21:26:33.220Z,16.48
2023-05-07T21:28:07.690Z,16.49
2023-05-07T21:29:40.812Z,16.46
2023-05-07T21:31:13.125Z,16.46
2023-05-07T21:32:46.423Z,16.47
2023-05-07T21:34:19.910Z,16.45
2023-05-07T21:35:54.462Z,16.45
2023-05-07T21:37:27.850Z,16.47
2023-05-07T21:39:01.148Z,16.43
2023-05-07T21:40:34.450Z,16.23
2023-05-07T21:42:07.524Z,16.04
2023-05-07T21:43:39.850Z,15.93
2023-05-07T21:45:14.128Z,15.93
2023-05-07T21:46:47.413Z,15.89
2023-05-07T21:48:22.161Z,15.84
2023-05-07T21:49:55.623Z,15.79
2023-05-07T21:51:30.164Z,15.82
2023-05-07T21:53:02.420Z,15.80
2023-05-07T21:54:35.600Z,15.79
2023-05-07T21:56:09.135Z,15.78
2023-05-07T21:57:48.038Z,15.71
2023-05-07T21:59:27.260Z,15.57
2023-05-07T22:01:01.369Z,15.41
2023-05-07T22:02:34.149Z,15.36
2023-05-07T22:04:07.643Z,15.32
2023-05-07T22:05:41.302Z,15.28
2023-05-07T22:07:16.031Z,15.16
2023-05-07T22:08:50.054Z,15.02
2023-05-07T22:10:23.327Z,15.00
2023-05-07T22:11:55.524Z,15.00
2023-05-07T22:13:28.736Z,15.00
2023-05-07T22:15:01.163Z,14.95
2023-05-07T22:16:34.393Z,14.96
2023-05-07T22:18:07.702Z,14.94
2023-05-07T22:19:40.914Z,15.01